Time;durP1;ratioP1;P1;durP2;ratioP2;P2;SDS_P1;SDS_P2;PMS_P1;PMS_P2;Temp;Humidity;BMP_temperature;BMP_pressure;BME280_temperature;BME280_humidity;BME280_pressure;Samples;Min_cycle;Max_cycle;Signal;HPM_P1;HPM_P2
2022/09/06 00:00:02;;;;;;;0.10;0.10;;;;;;;22.96;51.18;101714.44;1978573;29;20062;-66
2022/09/06 00:01:16;;;;;;;0.10;0.10;;;;;;;23.02;50.90;101710.06;1978747;30;20055;-66
2022/09/06 00:02:19;;;;;;;0.20;0.20;;;;;;;23.07;50.43;101710.41;1972463;30;20167;-66
2022/09/06 00:03:22;;;;;;;0.10;0.10;;;;;;;23.15;50.50;101702.88;1977758;29;20078;-66
2022/09/06 00:04:24;;;;;;;0.10;0.10;;;;;;;23.19;50.23;101704.41;1986705;29;20519;-67
2022/09/06 00:05:27;;;;;;;0.20;0.20;;;;;;;23.25;50.01;101697.31;1974488;29;20066;-66
2022/09/06 00:06:29;;;;;;;0.20;0.20;;;;;;;23.28;49.98;101702.00;1964400;30;20060;-66
2022/09/06 00:07:33;;;;;;;0.13;0.13;;;;;;;23.27;49.74;101710.69;1964624;30;20574;-65
2022/09/06 00:08:35;;;;;;;0.20;0.20;;;;;;;23.26;49.76;101712.66;1972325;30;20055;-67
2022/09/06 00:09:38;;;;;;;0.13;0.13;;;;;;;23.26;49.77;101711.88;1973340;30;20084;-64
2022/09/06 00:10:41;;;;;;;0.20;0.20;;;;;;;23.20;49.75;101718.97;1979895;30;20059;-66
2022/09/06 00:11:45;;;;;;;0.10;0.10;;;;;;;23.19;50.03;101717.41;1971670;30;20087;-65
2022/09/06 00:12:47;;;;;;;0.20;0.20;;;;;;;23.16;50.04;101723.72;1971250;30;20594;-65
2022/09/06 00:13:50;;;;;;;0.20;0.20;;;;;;;23.13;50.47;101719.03;1972001;30;20076;-66
2022/09/06 00:14:52;;;;;;;0.10;0.10;;;;;;;23.19;49.89;101717.41;1971329;30;20094;-66
2022/09/06 00:15:56;;;;;;;0.20;0.20;;;;;;;23.22;50.07;101719.34;1971870;30;20056;-66
2022/09/06 00:16:59;;;;;;;0.20;0.20;;;;;;;23.27;50.01;101711.47;1979599;30;20513;-66
2022/09/06 00:18:04;;;;;;;0.20;0.20;;;;;;;23.30;49.92;101704.34;1978901;30;20111;-67
2022/09/06 00:19:06;;;;;;;0.20;0.20;;;;;;;23.33;49.91;101695.28;1979638;30;20557;-66
2022/09/06 00:20:09;;;;;;;0.13;0.13;;;;;;;23.35;49.83;101695.66;1978955;30;20092;-66
2022/09/06 00:21:15;;;;;;;0.20;0.20;;;;;;;23.39;49.64;101705.47;1978859;29;20071;-65
2022/09/06 00:22:19;;;;;;;0.10;0.10;;;;;;;23.37;49.64;101715.34;1979796;30;20162;-66
2022/09/06 00:23:21;;;;;;;0.17;0.17;;;;;;;23.30;50.19;101718.94;1978792;30;20131;-66
2022/09/06 00:24:24;;;;;;;0.20;0.20;;;;;;;23.28;49.86;101726.81;1978630;29;20061;-65
2022/09/06 00:25:26;;;;;;;0.20;0.20;;;;;;;23.30;49.88;101729.16;1979740;30;20133;-66
2022/09/06 00:26:30;;;;;;;0.20;0.20;;;;;;;23.29;49.95;101727.59;1978345;29;20098;-67
2022/09/06 00:27:34;;;;;;;0.13;0.13;;;;;;;23.30;49.91;101732.72;1971254;30;20075;-66
2022/09/06 00:28:38;;;;;;;0.20;0.20;;;;;;;23.32;49.82;101724.03;1971617;30;20060;-66
2022/09/06 00:29:47;;;;;;;0.20;0.20;;;;;;;23.35;49.71;101723.22;1969498;30;20059;-67
2022/09/06 00:30:53;;;;;;;0.10;0.10;;;;;;;23.36;49.45;101713.75;1970559;30;20131;-66
2022/09/06 00:31:56;;;;;;;0.10;0.10;;;;;;;23.37;49.44;101704.31;1972114;30;20063;-66
2022/09/06 00:33:02;;;;;;;0.10;0.10;;;;;;;23.37;49.37;101702.31;1977838;30;20199;-67
2022/09/06 00:34:08;;;;;;;0.10;0.10;;;;;;;23.37;49.14;101698.81;1978570;30;20060;-67
2022/09/06 00:35:11;;;;;;;0.10;0.10;;;;;;;23.27;49.43;101713.44;1971524;30;20052;-66
2022/09/06 00:36:14;;;;;;;0.20;0.20;;;;;;;23.17;49.33;101714.25;1963953;30;20087;-67
2022/09/06 00:37:17;;;;;;;0.10;0.10;;;;;;;23.13;49.55;101721.78;1966990;30;20508;-66
2022/09/06 00:38:22;;;;;;;0.20;0.20;;;;;;;23.06;49.59;101719.06;1964069;30;20083;-66
2022/09/06 00:39:25;;;;;;;0.22;0.22;;;;;;;22.96;49.86;101719.94;1969639;30;20094;-66
2022/09/06 00:40:31;;;;;;;0.10;0.10;;;;;;;22.92;50.06;101713.66;1974254;29;20079;-66
2022/09/06 00:41:34;;;;;;;0.20;0.20;;;;;;;22.90;50.00;101708.56;1978995;30;20544;-65
2022/09/06 00:42:37;;;;;;;0.17;0.17;;;;;;;22.92;50.21;101697.13;1970529;30;20130;-65
2022/09/06 00:43:41;;;;;;;0.20;0.20;;;;;;;22.93;50.24;101695.97;1973364;29;20048;-65
2022/09/06 00:44:42;;;;;;;0.10;0.10;;;;;;;22.95;49.95;101696.31;1979470;30;20130;-65
2022/09/06 00:45:45;;;;;;;0.20;0.20;;;;;;;22.95;49.85;101699.06;1977984;30;20089;-66
2022/09/06 00:46:50;;;;;;;0.20;0.20;;;;;;;22.91;49.99;101709.34;1977574;30;20139;-65
2022/09/06 00:47:53;;;;;;;0.20;0.20;;;;;;;22.90;50.03;101707.75;1979561;30;20469;-66
2022/09/06 00:48:57;;;;;;;0.10;0.10;;;;;;;22.91;50.43;101714.84;1977514;30;20119;-66
2022/09/06 00:50:02;;;;;;;0.15;0.15;;;;;;;22.91;50.42;101710.09;1977685;30;20146;-66
2022/09/06 00:51:10;;;;;;;0.20;0.20;;;;;;;22.94;50.56;101705.78;1971424;30;20063;-66
2022/09/06 00:52:20;;;;;;;0.10;0.10;;;;;;;22.95;50.28;101697.09;1975280;30;20589;-67
2022/09/06 00:53:32;;;;;;;0.15;0.15;;;;;;;22.99;50.54;101697.09;1973316;30;20060;-66
2022/09/06 00:54:39;;;;;;;0.17;0.17;;;;;;;22.99;50.41;101684.09;1979717;30;20504;-68
2022/09/06 00:55:49;;;;;;;0.10;0.10;;;;;;;23.04;50.56;101688.41;1971136;30;20047;-66
2022/09/06 00:56:55;;;;;;;0.20;0.20;;;;;;;23.03;50.38;101690.38;1975187;30;20544;-66
2022/09/06 00:58:01;;;;;;;0.10;0.10;;;;;;;23.01;50.27;101695.50;1978397;30;20060;-66
2022/09/06 00:59:06;;;;;;;0.20;0.20;;;;;;;22.98;50.57;101698.25;1979410;30;20066;-67
2022/09/06 01:00:15;;;;;;;0.10;0.10;;;;;;;22.96;50.72;101695.91;1977068;29;20227;-66
2022/09/06 01:01:21;;;;;;;0.10;0.10;;;;;;;22.95;50.81;101704.59;1977237;30;20063;-67
2022/09/06 01:02:26;;;;;;;0.10;0.10;;;;;;;22.96;50.50;101700.66;1979524;30;20059;-67
2022/09/06 01:03:30;;;;;;;0.10;0.10;;;;;;;22.96;50.94;101698.66;1980711;29;20055;-66
2022/09/06 01:04:36;;;;;;;0.10;0.10;;;;;;;22.96;50.68;101706.16;1986987;29;20125;-66
2022/09/06 01:05:51;;;;;;;0.20;0.20;;;;;;;22.95;50.80;101699.88;1972050;30;20615;-67
2022/09/06 01:07:12;;;;;;;0.10;0.10;;;;;;;22.95;50.57;101693.56;1977170;30;20055;-65
2022/09/06 01:08:23;;;;;;;0.20;0.20;;;;;;;22.97;50.56;101697.50;1971039;30;20826;-67
2022/09/06 01:09:49;;;;;;;0.20;0.20;;;;;;;22.97;50.93;101696.72;1971800;30;20059;-66
2022/09/06 01:11:10;;;;;;;0.13;0.13;;;;;;;22.94;51.02;101698.31;1979382;30;20482;-65
2022/09/06 01:12:37;;;;;;;0.20;0.20;;;;;;;22.95;50.99;101693.56;1971320;30;20474;-66
2022/09/06 01:13:54;;;;;;;0.10;0.10;;;;;;;22.93;50.87;101698.72;1963701;30;20068;-66
2022/09/06 01:15:16;;;;;;;0.20;0.20;;;;;;;22.93;50.73;101698.72;1969256;30;20055;-64
2022/09/06 01:16:30;;;;;;;0.10;0.10;;;;;;;22.93;50.85;101701.47;1967020;30;20452;-65
2022/09/06 01:17:46;;;;;;;0.20;0.20;;;;;;;22.94;50.79;101689.25;1971481;30;20063;-65
2022/09/06 01:19:08;;;;;;;0.20;0.20;;;;;;;22.94;50.85;101697.53;1973292;30;20131;-67
2022/09/06 01:20:40;;;;;;;0.20;0.20;;;;;;;22.92;50.83;101686.91;1971845;30;20146;-67
2022/09/06 01:21:50;;;;;;;0.10;0.10;;;;;;;22.97;50.30;101693.94;1978737;29;20427;-66
2022/09/06 01:23:27;;;;;;;0.10;0.10;;;;;;;22.92;50.82;101695.16;1978799;29;20119;-67
2022/09/06 01:24:55;;;;;;;0.20;0.20;;;;;;;22.86;51.12;101696.00;1960288;30;20378;-66
2022/09/06 01:26:17;;;;;;;0.10;0.10;;;;;;;22.86;51.27;101688.53;1974374;29;20420;-66
2022/09/06 01:27:54;;;;;;;0.10;0.10;;;;;;;22.80;51.03;101681.84;1970437;30;20132;-67
2022/09/06 01:28:58;;;;;;;0.20;0.20;;;;;;;22.84;51.03;101684.59;1974633;29;20059;-66
2022/09/06 01:30:11;;;;;;;0.20;0.20;;;;;;;22.90;50.78;101685.72;1979233;30;20127;-67
2022/09/06 01:31:24;;;;;;;0.20;0.20;;;;;;;22.88;50.72;101688.13;1978215;29;20702;-67
2022/09/06 01:32:36;;;;;;;0.20;0.20;;;;;;;22.89;50.77;101686.91;1978281;29;20103;-66
2022/09/06 01:33:42;;;;;;;;;;;;;;;22.68;51.35;101682.34;1979593;30;20087;-66
2022/09/06 01:34:52;;;;;;;0.10;0.10;;;;;;;22.78;51.08;101691.72;1971022;30;20021;-66
2022/09/06 01:36:00;;;;;;;0.10;0.10;;;;;;;22.79;50.97;101685.81;1971316;30;20876;-67
2022/09/06 01:37:11;;;;;;;0.20;0.20;;;;;;;22.81;50.85;101688.94;1970025;30;20106;-67
2022/09/06 01:38:16;;;;;;;0.20;0.20;;;;;;;22.79;50.62;101690.50;1971395;30;20070;-66
2022/09/06 01:39:24;;;;;;;0.10;0.10;;;;;;;22.77;50.52;101692.91;1969040;30;20692;-66
2022/09/06 01:40:27;;;;;;;0.10;0.10;;;;;;;22.72;50.54;101685.06;1964032;30;20060;-67
2022/09/06 01:41:33;;;;;;;0.20;0.20;;;;;;;22.70;50.64;101681.94;1979013;29;20051;-66
2022/09/06 01:42:39;;;;;;;0.10;0.10;;;;;;;22.66;50.66;101684.69;1978409;29;20472;-66
2022/09/06 01:43:48;;;;;;;;;;;;;;;22.41;51.40;101681.25;1978139;30;20544;-66
2022/09/06 01:44:57;;;;;;;0.10;0.10;;;;;;;22.51;51.21;101679.63;1971145;30;19929;-66
2022/09/06 01:46:09;;;;;;;0.10;0.10;;;;;;;22.48;51.37;101678.47;1970705;30;20066;-67
2022/09/06 01:47:21;;;;;;;0.20;0.20;;;;;;;22.44;51.45;101672.19;1975222;30;20112;-66
2022/09/06 01:48:38;;;;;;;0.20;0.20;;;;;;;22.42;51.51;101676.56;1969650;30;20141;-67
2022/09/06 01:49:59;;;;;;;0.20;0.20;;;;;;;22.34;51.25;101675.00;1971281;30;20063;-66
2022/09/06 01:51:20;;;;;;;0.20;0.20;;;;;;;22.31;51.27;101673.06;1971756;30;20839;-67
2022/09/06 01:52:41;;;;;;;0.10;0.10;;;;;;;22.28;51.81;101671.88;1978027;30;20104;-67
2022/09/06 01:54:06;;;;;;;0.20;0.20;;;;;;;22.22;51.50;101667.97;1969614;30;20082;-67
2022/09/06 01:55:26;;;;;;;0.20;0.20;;;;;;;22.17;51.99;101673.88;1973152;30;20098;-66
2022/09/06 01:56:49;;;;;;;0.20;0.20;;;;;;;22.06;52.55;101664.88;1977221;30;20486;-67
2022/09/06 01:58:14;;;;;;;0.20;0.20;;;;;;;22.01;51.94;101663.34;1978880;30;20528;-67
2022/09/06 01:59:42;;;;;;;0.20;0.20;;;;;;;21.95;52.17;101661.38;1971774;30;20055;-67
2022/09/06 02:01:03;;;;;;;0.10;0.10;;;;;;;21.95;52.48;101664.94;1964645;30;20085;-66
2022/09/06 02:02:13;;;;;;;0.10;0.10;;;;;;;21.95;52.54;101664.94;1975766;30;20124;-66
2022/09/06 02:03:29;;;;;;;0.10;0.10;;;;;;;21.92;52.56;101665.72;1981104;29;20065;-67
2022/09/06 02:04:44;;;;;;;0.10;0.10;;;;;;;21.90;52.94;101668.09;1986532;29;20062;-66
2022/09/06 02:06:00;;;;;;;0.20;0.20;;;;;;;21.95;52.33;101675.13;1971797;30;20060;-67
2022/09/06 02:07:09;;;;;;;0.15;0.15;;;;;;;21.99;52.82;101675.94;1977577;30;20112;-67
2022/09/06 02:08:23;;;;;;;0.10;0.10;;;;;;;21.97;52.16;101684.59;1978787;29;20168;-66
2022/09/06 02:09:32;;;;;;;0.10;0.10;;;;;;;21.95;52.99;101678.69;1978888;29;20137;-67
2022/09/06 02:10:43;;;;;;;0.10;0.10;;;;;;;21.92;53.11;101676.72;1971807;30;20483;-67
2022/09/06 02:11:50;;;;;;;0.10;0.10;;;;;;;21.89;53.26;101674.78;1976766;30;20059;-66
2022/09/06 02:13:01;;;;;;;0.10;0.10;;;;;;;21.90;53.40;101681.03;1980139;30;20131;-66
2022/09/06 02:14:09;;;;;;;0.10;0.10;;;;;;;21.85;52.91;101682.22;1980653;30;20129;-66
2022/09/06 02:15:25;;;;;;;0.10;0.10;;;;;;;21.85;53.25;101675.97;1980274;30;20082;-66
2022/09/06 02:16:35;;;;;;;0.17;0.17;;;;;;;21.79;53.51;101672.81;1980122;30;20127;-66
2022/09/06 02:17:45;;;;;;;0.10;0.10;;;;;;;21.75;53.42;101679.50;1972107;30;20063;-65
2022/09/06 02:18:57;;;;;;;0.10;0.10;;;;;;;21.71;53.49;101676.75;1973833;30;20051;-66
2022/09/06 02:20:05;;;;;;;0.13;0.13;;;;;;;21.68;53.76;101676.75;1980087;30;20059;-66
2022/09/06 02:21:13;;;;;;;0.10;0.10;;;;;;;21.65;53.91;101672.81;1979803;30;20055;-66
2022/09/06 02:22:22;;;;;;;0.10;0.10;;;;;;;21.67;54.06;101669.69;1972449;30;20142;-66
2022/09/06 02:23:37;;;;;;;0.10;0.10;;;;;;;21.63;53.87;101666.13;1966279;30;20591;-66
2022/09/06 02:24:46;;;;;;;0.20;0.20;;;;;;;21.65;53.80;101663.78;1978353;29;20094;-66
2022/09/06 02:25:54;;;;;;;0.17;0.17;;;;;;;21.65;53.64;101661.84;1980196;30;20055;-66
2022/09/06 02:26:58;;;;;;;0.13;0.13;;;;;;;21.64;53.98;101657.53;1972197;30;20071;-65
2022/09/06 02:28:04;;;;;;;0.15;0.15;;;;;;;21.69;53.81;101657.09;1972294;30;20532;-66
2022/09/06 02:29:07;;;;;;;0.10;0.10;;;;;;;21.66;53.95;101657.13;1974991;30;20055;-66
2022/09/06 02:30:12;;;;;;;0.20;0.20;;;;;;;21.70;53.65;101655.16;1980274;29;20447;-66
2022/09/06 02:31:20;;;;;;;0.20;0.20;;;;;;;21.72;53.88;101650.03;1979973;30;20103;-66
2022/09/06 02:32:26;;;;;;;0.10;0.10;;;;;;;21.72;53.80;101644.53;1979987;29;20059;-67
2022/09/06 02:33:31;;;;;;;0.10;0.10;;;;;;;21.73;53.92;101646.91;1980380;30;20094;-67
2022/09/06 02:34:38;;;;;;;0.10;0.10;;;;;;;21.75;53.58;101646.50;1979665;30;20139;-67
2022/09/06 02:35:43;;;;;;;0.20;0.20;;;;;;;21.75;53.96;101644.56;1972400;30;20052;-67
2022/09/06 02:36:48;;;;;;;0.13;0.13;;;;;;;21.76;53.60;101646.13;1972341;30;20052;-67
2022/09/06 02:37:51;;;;;;;0.20;0.20;;;;;;;21.73;53.87;101641.41;1972288;30;20054;-67
2022/09/06 02:38:54;;;;;;;0.10;0.10;;;;;;;21.72;53.84;101645.31;1975472;29;20055;-67
2022/09/06 02:39:57;;;;;;;0.20;0.20;;;;;;;21.68;54.08;101644.53;1972350;30;20093;-67
2022/09/06 02:41:04;;;;;;;0.20;0.20;;;;;;;21.65;54.12;101631.59;1976789;29;20059;-67
2022/09/06 02:42:08;;;;;;;0.10;0.10;;;;;;;21.67;54.11;101637.50;1983808;29;20070;-67
2022/09/06 02:43:13;;;;;;;0.20;0.20;;;;;;;21.71;54.06;101629.22;1974555;29;20189;-67
2022/09/06 02:44:15;;;;;;;0.20;0.20;;;;;;;21.72;54.32;101622.56;1982910;29;20429;-70
2022/09/06 02:45:19;;;;;;;0.10;0.10;;;;;;;21.69;54.09;101634.34;1985545;29;20474;-70
2022/09/06 02:46:23;;;;;;;0.20;0.20;;;;;;;21.62;54.56;101628.84;1979604;30;20055;-70
2022/09/06 02:47:27;;;;;;;0.20;0.20;;;;;;;21.59;54.19;101626.91;1973956;29;20083;-70
2022/09/06 02:48:30;;;;;;;0.20;0.20;;;;;;;21.53;54.97;101626.50;1987661;29;20054;-70
2022/09/06 02:49:35;;;;;;;0.10;0.10;;;;;;;21.49;55.19;101625.75;1980861;29;20456;-70
2022/09/06 02:50:38;;;;;;;0.10;0.10;;;;;;;21.50;54.88;101623.78;1971951;30;20567;-70
2022/09/06 02:51:42;;;;;;;0.20;0.20;;;;;;;21.48;54.69;101618.69;1973059;29;20044;-70
2022/09/06 02:52:45;;;;;;;0.20;0.20;;;;;;;21.50;54.63;101621.81;1987691;29;20086;-70
2022/09/06 02:53:49;;;;;;;0.20;0.20;;;;;;;21.50;54.85;101627.28;1973543;29;20064;-70
2022/09/06 02:54:51;;;;;;;0.10;0.10;;;;;;;21.47;54.70;101622.59;1972773;30;20055;-70
2022/09/06 02:55:56;;;;;;;0.10;0.10;;;;;;;21.43;54.85;101616.34;1975737;29;20051;-71
2022/09/06 02:56:58;;;;;;;0.10;0.10;;;;;;;21.45;54.97;101619.47;1972089;30;20067;-70
2022/09/06 02:58:05;;;;;;;0.20;0.20;;;;;;;21.44;55.06;101620.63;1965733;30;20056;-70
2022/09/06 02:59:10;;;;;;;0.10;0.10;;;;;;;21.41;55.09;101612.41;1972765;29;20108;-70
2022/09/06 03:00:16;;;;;;;0.20;0.20;;;;;;;21.42;55.11;101620.25;1976482;29;20059;-70
2022/09/06 03:01:21;;;;;;;0.13;0.13;;;;;;;21.39;54.82;101615.53;1981060;29;20386;-71
2022/09/06 03:02:26;;;;;;;0.15;0.15;;;;;;;21.41;54.67;101617.88;1972869;30;20076;-70
2022/09/06 03:03:30;;;;;;;0.20;0.20;;;;;;;21.40;55.00;101616.34;1979891;30;20066;-70
2022/09/06 03:04:33;;;;;;;0.10;0.10;;;;;;;21.40;55.25;101606.13;1979983;30;20051;-70
2022/09/06 03:05:41;;;;;;;0.20;0.20;;;;;;;21.41;54.74;101612.41;1980436;30;20055;-70
2022/09/06 03:06:46;;;;;;;0.20;0.20;;;;;;;21.42;54.92;101614.75;1979782;30;20059;-70
2022/09/06 03:07:49;;;;;;;0.20;0.20;;;;;;;21.40;55.09;101617.13;1973329;30;20063;-70
2022/09/06 03:08:53;;;;;;;0.20;0.20;;;;;;;21.39;54.57;101612.78;1964742;30;20207;-70
2022/09/06 03:09:56;;;;;;;0.10;0.10;;;;;;;21.38;54.87;101619.47;1967674;30;20055;-70
2022/09/06 03:11:00;;;;;;;0.20;0.20;;;;;;;21.35;54.96;101613.97;1972821;30;20064;-70
2022/09/06 03:12:02;;;;;;;0.20;0.20;;;;;;;21.26;55.54;101611.66;1972732;30;20056;-70
2022/09/06 03:13:06;;;;;;;0.10;0.10;;;;;;;21.23;55.39;101606.91;1972042;30;20544;-70
2022/09/06 03:14:12;;;;;;;0.10;0.10;;;;;;;21.21;55.12;101612.03;1972072;30;20056;-70
2022/09/06 03:15:18;;;;;;;0.28;0.28;;;;;;;21.19;55.25;101617.13;1972736;30;20783;-70
2022/09/06 03:16:21;;;;;;;0.20;0.20;;;;;;;21.16;55.11;101615.19;1972541;30;20079;-70
2022/09/06 03:17:26;;;;;;;0.20;0.20;;;;;;;21.15;55.49;101607.34;1977737;29;20808;-70
2022/09/06 03:18:30;;;;;;;0.20;0.20;;;;;;;21.16;55.74;101608.91;1987589;29;20066;-70
2022/09/06 03:19:33;;;;;;;0.17;0.17;;;;;;;21.17;55.29;101608.50;1979951;29;20134;-70
2022/09/06 03:20:36;;;;;;;0.20;0.20;;;;;;;21.18;55.60;101604.59;1979564;29;20124;-70
2022/09/06 03:21:39;;;;;;;0.20;0.20;;;;;;;21.22;55.34;101610.84;1979914;30;20051;-70
2022/09/06 03:22:43;;;;;;;0.20;0.20;;;;;;;21.19;55.34;101614.41;1980283;29;20116;-70
2022/09/06 03:23:48;;;;;;;0.10;0.10;;;;;;;21.20;55.29;101610.47;1975097;29;20051;-71
2022/09/06 03:24:53;;;;;;;0.10;0.10;;;;;;;21.18;55.10;101607.34;1972624;30;20059;-70
2022/09/06 03:25:56;;;;;;;0.10;0.10;;;;;;;21.13;55.63;101612.44;1972255;30;20063;-70
2022/09/06 03:26:59;;;;;;;0.10;0.10;;;;;;;21.06;55.47;101613.22;1972419;30;20492;-70
2022/09/06 03:28:04;;;;;;;0.10;0.10;;;;;;;21.05;55.77;101605.38;1972557;30;20449;-70
2022/09/06 03:29:17;;;;;;;0.10;0.10;;;;;;;20.98;55.64;101611.66;1972676;30;20441;-70
2022/09/06 03:30:23;;;;;;;0.10;0.10;;;;;;;20.94;55.65;101610.06;1975490;30;20094;-70
2022/09/06 03:31:26;;;;;;;0.15;0.15;;;;;;;20.96;55.91;101616.75;1972589;30;20526;-70
2022/09/06 03:32:31;;;;;;;0.10;0.10;;;;;;;20.95;56.01;101606.16;1972387;30;20134;-70
2022/09/06 03:33:35;;;;;;;0.20;0.20;;;;;;;20.92;55.98;101610.44;1972585;30;20623;-70
2022/09/06 03:34:38;;;;;;;0.10;0.10;;;;;;;20.92;56.05;101604.94;1972443;30;20087;-70
2022/09/06 03:35:49;;;;;;;0.10;0.10;;;;;;;20.90;56.11;101601.03;1972594;30;20079;-70
2022/09/06 03:36:53;;;;;;;0.20;0.20;;;;;;;20.92;56.19;101610.44;1972528;30;20060;-70
2022/09/06 03:37:56;;;;;;;0.20;0.20;;;;;;;20.92;55.78;101612.41;1972565;30;20052;-70
2022/09/06 03:39:00;;;;;;;0.20;0.20;;;;;;;20.93;56.06;101611.22;1972570;30;20117;-70
2022/09/06 03:40:03;;;;;;;0.10;0.10;;;;;;;20.95;55.74;101609.66;1968092;30;20125;-70
2022/09/06 03:41:06;;;;;;;0.10;0.10;;;;;;;20.97;55.81;101609.28;1977774;29;20055;-70
2022/09/06 03:42:10;;;;;;;0.10;0.10;;;;;;;21.00;55.44;101609.31;1978223;29;20055;-70
2022/09/06 03:43:14;;;;;;;0.20;0.20;;;;;;;20.99;56.00;101599.50;1972637;30;20509;-70
2022/09/06 03:44:22;;;;;;;0.10;0.10;;;;;;;20.99;55.79;101599.50;1972579;30;20064;-70
2022/09/06 03:45:25;;;;;;;0.10;0.10;;;;;;;20.96;55.64;101608.53;1972746;30;20133;-70
2022/09/06 03:46:29;;;;;;;0.20;0.20;;;;;;;20.98;55.81;101606.16;1974909;29;20098;-70
2022/09/06 03:47:33;;;;;;;0.20;0.20;;;;;;;21.01;55.52;101610.84;1972532;30;20059;-70
2022/09/06 03:48:39;;;;;;;0.17;0.17;;;;;;;21.03;55.26;101608.50;1972493;30;20528;-70
2022/09/06 03:49:45;;;;;;;0.20;0.20;;;;;;;21.00;55.32;101614.78;1980116;30;20051;-70
2022/09/06 03:50:50;;;;;;;0.20;0.20;;;;;;;20.95;55.69;101606.91;1971554;30;20078;-70
2022/09/06 03:51:59;;;;;;;0.10;0.10;;;;;;;20.89;55.63;101613.97;1970761;30;20051;-70
2022/09/06 03:53:01;;;;;;;0.15;0.15;;;;;;;20.83;55.93;101608.06;1976506;30;20056;-70
2022/09/06 03:54:09;;;;;;;0.20;0.20;;;;;;;20.84;56.10;101611.59;1972354;30;20060;-70
2022/09/06 03:55:15;;;;;;;0.13;0.13;;;;;;;20.82;56.27;101613.94;1972632;30;20089;-70
2022/09/06 03:56:19;;;;;;;0.10;0.10;;;;;;;20.81;56.17;101606.91;1977551;30;20074;-70
2022/09/06 03:57:24;;;;;;;0.20;0.20;;;;;;;20.85;55.91;101607.72;1979813;30;20063;-71
2022/09/06 03:58:32;;;;;;;0.20;0.20;;;;;;;20.85;55.98;101604.16;1979564;29;20435;-70
2022/09/06 03:59:37;;;;;;;0.10;0.10;;;;;;;20.86;55.93;101606.53;1979534;30;20047;-70
2022/09/06 04:00:44;;;;;;;0.20;0.20;;;;;;;20.85;56.04;101604.97;1979908;29;20150;-70
2022/09/06 04:01:48;;;;;;;0.20;0.20;;;;;;;20.84;56.08;101606.13;1973545;29;20079;-70
2022/09/06 04:02:55;;;;;;;0.20;0.20;;;;;;;20.86;56.16;101609.28;1972273;30;20234;-70
2022/09/06 04:04:03;;;;;;;0.10;0.10;;;;;;;20.89;55.63;101599.44;1972507;30;20429;-71
2022/09/06 04:05:17;;;;;;;0.17;0.17;;;;;;;20.91;55.51;101608.88;1972757;30;20087;-70
2022/09/06 04:06:22;;;;;;;0.20;0.20;;;;;;;20.95;55.81;101606.91;1979977;30;20159;-70
2022/09/06 04:07:26;;;;;;;0.20;0.20;;;;;;;20.96;55.76;101603.03;1979428;30;20061;-70
2022/09/06 04:08:29;;;;;;;0.20;0.20;;;;;;;20.98;55.72;101608.13;1979806;29;20063;-70
2022/09/06 04:09:34;;;;;;;0.13;0.13;;;;;;;20.99;55.77;101605.00;1971848;30;20120;-70
2022/09/06 04:10:37;;;;;;;0.20;0.20;;;;;;;21.01;55.52;101616.34;1971285;30;20753;-70
2022/09/06 04:11:41;;;;;;;0.17;0.17;;;;;;;21.02;55.80;101612.44;1972437;30;20059;-71
2022/09/06 04:12:46;;;;;;;0.20;0.20;;;;;;;21.02;55.44;101617.94;1972427;30;20081;-70
2022/09/06 04:13:51;;;;;;;0.20;0.20;;;;;;;21.06;55.51;101618.72;1964473;30;20129;-71
2022/09/06 04:14:56;;;;;;;0.20;0.20;;;;;;;21.08;55.58;101615.56;1964673;30;20063;-71
2022/09/06 04:16:00;;;;;;;0.30;0.30;;;;;;;21.08;55.51;101616.38;1972290;30;20101;-71
2022/09/06 04:17:05;;;;;;;0.30;0.30;;;;;;;21.10;55.70;101614.00;1971763;30;20535;-70
2022/09/06 04:18:08;;;;;;;0.20;0.20;;;;;;;21.12;55.35;101622.63;1971711;30;20055;-70
2022/09/06 04:19:11;;;;;;;0.10;0.10;;;;;;;21.13;55.49;101617.94;1972309;30;20059;-70
2022/09/06 04:20:17;;;;;;;0.15;0.15;;;;;;;21.17;54.93;101624.97;1972364;30;20108;-70
2022/09/06 04:21:21;;;;;;;0.20;0.20;;;;;;;21.13;55.37;101629.69;1977747;29;20062;-70
2022/09/06 04:22:26;;;;;;;0.20;0.20;;;;;;;21.12;55.13;101633.59;1971572;30;20098;-70
2022/09/06 04:23:32;;;;;;;0.10;0.10;;;;;;;21.12;55.39;101628.13;1964381;30;20060;-70
2022/09/06 04:24:45;;;;;;;0.17;0.17;;;;;;;21.08;55.82;101637.53;1970592;30;20087;-70
2022/09/06 04:25:50;;;;;;;0.10;0.10;;;;;;;21.06;55.88;101639.91;1973230;30;20500;-70
2022/09/06 04:26:55;;;;;;;0.13;0.13;;;;;;;21.00;55.70;101639.50;1973927;30;20056;-71
2022/09/06 04:27:58;;;;;;;0.10;0.10;;;;;;;21.03;55.39;101635.97;1972269;30;20517;-70
2022/09/06 04:29:12;;;;;;;0.20;0.20;;;;;;;21.00;55.59;101645.00;1972261;29;20055;-70
2022/09/06 04:30:16;;;;;;;0.20;0.20;;;;;;;21.03;55.67;101649.69;1972454;30;20094;-71
2022/09/06 04:31:21;;;;;;;0.10;0.10;;;;;;;21.03;55.49;101652.44;1972013;29;20066;-71
2022/09/06 04:32:25;;;;;;;0.10;0.10;;;;;;;20.99;55.79;101665.41;1972174;30;20052;-70
2022/09/06 04:33:31;;;;;;;0.20;0.20;;;;;;;21.01;55.86;101665.78;1972319;30;20051;-70
2022/09/06 04:34:33;;;;;;;0.20;0.20;;;;;;;20.95;56.35;101656.31;1978375;29;20066;-71
2022/09/06 04:35:39;;;;;;;0.10;0.10;;;;;;;20.93;55.98;101658.66;1974793;30;20131;-70
2022/09/06 04:36:43;;;;;;;0.20;0.20;;;;;;;20.87;56.71;101660.25;1965653;30;20084;-70
2022/09/06 04:37:50;;;;;;;0.17;0.17;;;;;;;20.83;56.56;101655.91;1971547;30;20064;-70
2022/09/06 04:38:54;;;;;;;0.10;0.10;;;;;;;20.78;56.73;101651.59;1966757;30;20091;-70
2022/09/06 04:40:02;;;;;;;0.20;0.20;;;;;;;20.73;56.68;101660.22;1972194;29;20059;-70
2022/09/06 04:41:06;;;;;;;0.20;0.20;;;;;;;20.64;57.03;101651.59;1983293;29;20457;-70
2022/09/06 04:42:10;;;;;;;0.20;0.20;;;;;;;20.58;57.28;101653.16;1976420;29;20495;-70
2022/09/06 04:43:13;;;;;;;0.20;0.20;;;;;;;20.53;57.52;101656.25;1973053;30;20120;-70
2022/09/06 04:44:17;;;;;;;0.10;0.10;;;;;;;20.51;57.57;101664.88;1977529;30;20134;-71
2022/09/06 04:45:23;;;;;;;0.20;0.20;;;;;;;20.47;57.76;101666.03;1972197;30;20070;-70
2022/09/06 04:46:30;;;;;;;0.10;0.10;;;;;;;20.42;58.19;101660.94;1977947;30;20059;-70
2022/09/06 04:47:34;;;;;;;0.10;0.10;;;;;;;20.38;59.40;101666.41;1975194;30;20055;-70
2022/09/06 04:48:39;;;;;;;0.10;0.10;;;;;;;20.38;58.73;101665.59;1972191;30;20085;-70
2022/09/06 04:49:41;;;;;;;0.20;0.20;;;;;;;20.36;59.18;101676.19;1972172;30;20093;-70
2022/09/06 04:50:45;;;;;;;0.20;0.20;;;;;;;20.34;59.44;101673.81;1971885;30;20556;-70
2022/09/06 04:51:48;;;;;;;0.30;0.30;;;;;;;20.30;59.62;101672.22;1980893;29;20134;-70
2022/09/06 04:52:51;;;;;;;0.30;0.30;;;;;;;20.30;60.73;101674.97;1974248;29;20474;-70
2022/09/06 04:53:54;;;;;;;0.20;0.20;;;;;;;20.31;61.25;101673.81;1974019;30;20055;-70
2022/09/06 04:54:59;;;;;;;0.22;0.22;;;;;;;20.28;60.87;101669.88;1971583;30;20059;-70
2022/09/06 04:56:05;;;;;;;0.20;0.20;;;;;;;20.27;60.99;101673.81;1971127;30;20132;-70
2022/09/06 04:57:10;;;;;;;0.25;0.25;;;;;;;20.25;60.63;101673.41;1974058;30;20405;-70
2022/09/06 04:58:13;;;;;;;0.20;0.20;;;;;;;20.27;60.83;101673.00;1979537;30;20480;-70
2022/09/06 04:59:24;;;;;;;0.20;0.20;;;;;;;20.22;61.92;101671.44;1979154;30;20059;-70
2022/09/06 05:00:32;;;;;;;0.20;0.20;;;;;;;20.18;62.51;101670.63;1979251;30;20361;-70
2022/09/06 05:01:40;;;;;;;0.20;0.20;;;;;;;20.18;63.21;101667.91;1979625;30;20059;-70
2022/09/06 05:02:44;;;;;;;0.20;0.20;;;;;;;20.20;63.40;101664.75;1972134;30;20059;-70
2022/09/06 05:03:51;;;;;;;0.10;0.10;;;;;;;20.18;65.06;101667.09;1976059;30;20133;-70
2022/09/06 05:05:00;;;;;;;0.20;0.20;;;;;;;20.20;63.16;101664.75;1979062;29;20070;-70
2022/09/06 05:06:06;;;;;;;0.10;0.10;;;;;;;20.21;63.12;101674.56;1987002;29;20420;-70
2022/09/06 05:07:08;;;;;;;0.20;0.20;;;;;;;20.19;64.16;101663.97;1981533;29;20416;-70
2022/09/06 05:08:12;;;;;;;0.20;0.20;;;;;;;20.18;64.67;101667.09;1978960;30;20092;-70
2022/09/06 05:09:14;;;;;;;0.20;0.20;;;;;;;20.22;64.00;101667.88;1971929;30;20055;-70
2022/09/06 05:10:18;;;;;;;0.20;0.20;;;;;;;20.19;65.22;101661.22;1975580;30;20134;-70
2022/09/06 05:11:23;;;;;;;0.13;0.13;;;;;;;20.19;64.62;101663.97;1979363;30;20063;-69
2022/09/06 05:12:26;;;;;;;0.20;0.20;;;;;;;20.16;64.24;101666.69;1979258;30;20086;-69